Tiempo atmosférico en la estación meteorológica de Adra,club Naútico, Almería (8 m.)

Fecha
DESCASC
Temp. máxima en grados centígrados (hora)
DESCASC
Temp. mínima en grados centígrados (hora)
DESCASC
Temp. media en grados centígrados
DESCASC
Racha de viento máxima en m/sg (hora)
DESCASC
Velocidad máxima media en intervalos de 10 minutos(hora)
DESCASC
Precipitaciones diarias en mm
DESCASC
Precipitaciones de 00:00 a 06:00 en mm
DESCASC
Precipitaciones de 06:00 a 12:00 en mm
DESCASC
Precipitaciones de 12:00 a 18:00 en mm
DESCASC
Precipitaciones de 18:00 a 24:00 en mm
DESCASC

Gráficas

Temp. máximas Temp. mínimas Temp. medias Precipitaciones Rachas de viento máximas Velocidades máximas media en intervalos de 10 minutos

Datos horarios

Fecha y hora oficial Temperatura (ºC) Velocidad del viento (km/h) Dirección del viento Racha (km/h) Dirección de racha Precipitación (mm) Presión (hPa) Tendencia (hPa) Humedad (%)
2017-09-05 18:00:00 -- -- -- -- -- -- -- -- --
2017-09-05 17:00:00 27 5 Sudeste 19 Sudeste 0 1018.2 -0.8 74
2017-09-05 16:00:00 26.8 11 Sudeste 20 Este 0 1018.4 -0.9 73
2017-09-05 15:00:00 26.9 12 Sudeste 22 Sudeste 0 1018.5 -0.9 69
2017-09-05 14:00:00 26.7 14 Sudeste 24 Sudeste 0 1019 -0.6 70
2017-09-05 13:00:00 26.8 14 Sudeste 27 Sudeste 0 1019.3 0.5 72
2017-09-05 12:00:00 26.9 17 Sudeste 32 Sudeste 0 1019.4 0.8 70
2017-09-05 11:00:00 26.6 17 Sudeste 25 Sudeste 0 1019.6 0.8 72
2017-09-05 10:00:00 27.7 8 Este 17 Nordeste 0 1018.8 0.4 63
2017-09-05 09:00:00 26.5 7 Este 13 Este 0 1018.6 0.7 66
2017-09-05 08:00:00 23.9 6 Este 16 Este 0 1018.8 1.4 75
2017-09-05 07:00:00 23.6 4 Este 17 Este 0 1018.4 1.3 81
2017-09-05 06:00:00 23.5 8 Este 21 Este 0 1017.9 1.1 83
2017-09-05 05:00:00 23.6 3 Este 12 Este 0 1017.4 0.9 84
2017-09-05 04:00:00 23.7 3 Nordeste 12 Sudeste 0 1017.1 0.5 86
2017-09-05 03:00:00 24.2 4 Este 16 Sudeste 0 1016.8 0.3 83
2017-09-05 02:00:00 24.6 6 Este 24 Este 0 1016.5 1 83
2017-09-05 01:00:00 24.8 4 Este 13 Este 0 1016.6 1.6 82
2017-09-05 00:00:00 24.4 5 Nordeste 18 Este 0 1016.5 2.5 84
2017-09-04 23:00:00 24.6 7 Este 17 Este 0 1015.5 2.3 78
2017-09-04 22:00:00 24.9 7 Este 16 Este 0 1015 3.2 76
2017-09-04 21:00:00 25.3 5 Este 14 Este 0 1014 3.4 75
2017-09-04 20:00:00 25.7 6 Este 13 Este 0 1013.2 2.3 74
2017-09-04 19:00:00 26.6 6 Sudoeste 24 Oeste 0 1011.8 1.1 72
2017-09-04 18:00:00 26.9 14 Oeste 29 Oeste 0 1010.6 -0.6 71
2017-09-04 17:00:00 27.4 15 Sudoeste 24 Sudoeste 0 1010.9 -0.6 67
2017-09-04 16:00:00 27.8 8 Sur 20 Sudoeste 0 1010.7 -1.5 71
2017-09-04 15:00:00 26.8 11 Sudoeste 18 Sudoeste 0 1011.2 -1.2 75
2017-09-04 14:00:00 28.6 4 Sudoeste 15 Sudoeste 0 1011.5 -1.3 70
2017-09-04 13:00:00 28 5 Sur 12 Sur 0 1012.2 0.4 72
2017-09-04 12:00:00 26.8 5 Sur 10 Sur 0 1012.4 1 76
2017-09-04 11:00:00 26.4 5 Sur 11 Sur 0 1012.8 0.5 76
2017-09-04 10:00:00 27.4 2 Sur 7 Sur 0 1011.8 -0.6 72
2017-09-04 09:00:00 26.2 0 Calma 9 Sur 0 1011.4 -0.4 80
2017-09-04 08:00:00 24 4 Sur 13 Sudoeste 0 1012.3 0.4 90
2017-09-04 07:00:00 23.3 4 Oeste 11 Oeste 0 1012.4 0.4 88
2017-09-04 06:00:00 23.4 6 Oeste 10 Oeste 0 1011.8 -0.5 86
2017-09-04 05:00:00 23.1 0 Calma 5 Norte 0 1011.9 -0.8 83
2017-09-04 04:00:00 22.8 3 Norte 5 Norte 0 1012 -1.2 82
2017-09-04 03:00:00 22.8 3 Norte 5 Noroeste 0 1012.3 -0.8 84
2017-09-04 02:00:00 23.4 0 Calma 4 Norte 0 1012.7 -0.9 86
2017-09-04 01:00:00 23.2 0 Calma 17 Sudoeste 0 1013.2 -0.3 87
2017-09-04 00:00:00 23.9 12 Oeste 20 Sudoeste 0 1013.1 -0.2 89
2017-09-03 23:00:00 24.1 13 Sudoeste 22 Sudoeste 0 1013.6 1 88
2017-09-03 22:00:00 25.1 13 Oeste 21 Sudoeste 0 1013.5 0.9 76
2017-09-03 21:00:00 24.7 14 Oeste 21 Oeste 0 1013.3 0.5 76
2017-09-03 20:00:00 24.8 12 Oeste 18 Oeste 0 1012.6 0.2 78
2017-09-03 19:00:00 24.8 12 Oeste 20 Oeste 0 1012.6 0 78
2017-09-03 18:00:00 25.4 10 Sudoeste 19 Sudoeste 0 1012.8 -0.4 73
2017-09-03 17:00:00 26.4 12 Sudoeste 22 Sudoeste 0 1012.4 -1.4 68
2017-09-03 16:00:00 27.3 8 Sudoeste 17 Sudoeste 0 1012.6 -2.2 65
2017-09-03 15:00:00 27.9 6 Sudoeste 13 Sudoeste 0 1013.2 -1.8 63
2017-09-03 14:00:00 28.9 3 Sur 13 Sudoeste 0 1013.8 -1.8 57
2017-09-03 13:00:00 27.8 5 Sur 10 Sudeste 0 1014.8 -1 60
2017-09-03 12:00:00 27.5 5 Sur 14 Sudeste 0 1015 -0.7 68
2017-09-03 11:00:00 25.9 7 Sudeste 11 Sudeste 0 1015.6 -0.5 74
2017-09-03 10:00:00 25.9 8 Sudeste 14 Sudeste 0 1015.8 -1 72
2017-09-03 09:00:00 25.8 6 Este 14 Este 0 1015.7 -1.2 68
2017-09-03 08:00:00 24.5 6 Este 17 Norte 0 1016.1 -0.9 75
2017-09-03 07:00:00 22.6 3 Nordeste 12 Norte 0 1016.8 -0.5 84
2017-09-03 06:00:00 22.7 3 Nordeste 11 Noroeste 0 1016.9 -0.8 87
2017-09-03 05:00:00 23 4 Norte 10 Norte 0 1017 -1.1 87
2017-09-03 04:00:00 23.3 0 Calma 6 Este 0 1017.3 -1.4 87
2017-09-03 03:00:00 23.7 0 Calma 10 Este 0 1017.7 -0.8 86
2017-09-03 02:00:00 23.8 3 Este 10 Este 0 1018.1 -0.5 84
2017-09-03 01:00:00 23.6 0 Calma 7 Este 0 1018.7 -0.1 84
2017-09-03 00:00:00 24.2 3 Este 17 Este 0 1018.5 0 83
2017-09-02 23:00:00 24.3 5 Este 13 Sudeste 0 1018.6 0.5 83
2017-09-02 22:00:00 24.4 2 Este 14 Este 0 1018.8 1.1 84
2017-09-02 21:00:00 24.9 4 Este 14 Este 0 1018.5 0.7 82
2017-09-02 20:00:00 25.1 6 Este 19 Sudeste 0 1018.1 0.3 78
2017-09-02 19:00:00 24.9 10 Sudeste 23 Sudeste 0 1017.7 0.1 82
2017-09-02 18:00:00 25.1 13 Sudeste 22 Sudeste 0 1017.8 0 82
2017-09-02 17:00:00 25.4 14 Sudeste 26 Sudeste 0 1017.8 0.1 82
2017-09-02 16:00:00 25.5 16 Sudeste 31 Sudeste 0 1017.6 -0.6 79
2017-09-02 15:00:00 25.6 19 Sudeste 35 Este 0 1017.8 -0.2 78
2017-09-02 14:00:00 26.1 23 Sudeste 35 Este 0 1017.7 -0.3 78
2017-09-02 13:00:00 26.1 18 Sudeste 33 Sudeste 0 1018.2 0.6 77
2017-09-02 12:00:00 26.7 19 Sudeste 31 Este 0 1018 0.5 72
2017-09-02 11:00:00 26.8 17 Sudeste 26 Sudeste 0 1018 -0.2 70
2017-09-02 10:00:00 27.7 10 Este 22 Este 0 1017.6 -0.2 61
2017-09-02 09:00:00 26.7 6 Este 16 Este 0 1017.5 0.3 66
2017-09-02 08:00:00 24.8 3 Este 12 Este 0 1018.2 1.3 76
2017-09-02 07:00:00 24.9 3 Este 8 Este 0 1017.8 1.2 76
2017-09-02 06:00:00 24.8 0 Calma 5 Este 0 1017.2 0.8 76
2017-09-02 05:00:00 24.7 4 Este 9 Este 0 1016.9 0.4 77
2017-09-02 04:00:00 24.6 0 Calma 3 Sudeste 0 1016.6 0 77
2017-09-02 03:00:00 24.8 0 Calma 6 Norte 0 1016.4 -0.1 75
2017-09-02 02:00:00 25.2 0 Calma 8 Este 0 1016.5 0.4 73
2017-09-02 01:00:00 25.1 0 Calma 10 Nordeste 0 1016.6 0.6 72
2017-09-02 00:00:00 25.5 4 Este 15 Este 0 1016.5 1.1 72
2017-09-01 23:00:00 25.9 6 Este 21 Este 0 1016.1 1.3 71
2017-09-01 22:00:00 26.1 8 Este 24 Este 0 1016 1.6 73
2017-09-01 21:00:00 26.3 8 Este 17 Este 0 1015.4 1.4 73
2017-09-01 20:00:00 26.4 3 Este 15 Sudeste 0 1014.8 1.6 78
2017-09-01 19:00:00 26.2 10 Sudeste 22 Sudeste 0 1014.4 1.6 82
2017-09-01 18:00:00 26.7 13 Sudeste 23 Sudeste 0 1014 0.6 76
2017-09-01 17:00:00 28.4 4 Sur 12 Sudoeste 0 1013.2 -0.3 61
2017-09-01 16:00:00 29.2 4 Sudoeste 12 Sudoeste 0 1012.8 -1.8 58
2017-09-01 15:00:00 28.6 5 Sudoeste 13 Sudoeste 0 1013.4 -1.8 58
2017-09-01 14:00:00 28.2 7 Sudoeste 15 Sudoeste 0 1013.5 -1.2 60
2017-09-01 13:00:00 27.2 9 Sudoeste 15 Sudoeste 0 1014.6 -- 63
2017-09-01 12:00:00 26.6 10 Sudoeste 14 Oeste 0 1015.2 -- 65
2017-09-01 11:00:00 28.7 2 Sur -- -- -- 1014.7 -- 60
2017-09-01 10:00:00 -- -- -- -- -- -- -- -- --
2017-09-01 09:00:00 -- -- -- -- -- -- -- -- --
2017-09-01 08:00:00 -- -- -- -- -- -- -- -- --
2017-09-01 07:00:00 -- -- -- -- -- -- -- -- --
2017-09-01 06:00:00 -- -- -- -- -- -- -- -- --
2017-09-01 05:00:00 -- -- -- -- -- -- -- -- --
2017-09-01 04:00:00 -- -- -- -- -- -- -- -- --
2017-09-01 03:00:00 -- -- -- -- -- -- -- -- --
2017-09-01 02:00:00 -- -- -- -- -- -- -- -- --
2017-09-01 01:00:00 -- -- -- -- -- -- -- -- --
2017-09-01 00:00:00 -- -- -- -- -- -- -- -- --
2017-08-31 23:00:00 -- -- -- -- -- -- -- -- --
2017-08-31 22:00:00 -- -- -- -- -- -- -- -- --
2017-08-31 21:00:00 -- -- -- -- -- -- -- -- --
2017-08-31 20:00:00 -- -- -- -- -- -- -- -- --
2017-08-31 19:00:00 -- -- -- -- -- -- -- -- --
2017-08-31 18:00:00 -- -- -- -- -- -- -- -- --
2017-08-31 17:00:00 -- -- -- -- -- -- -- -- --
2017-08-31 16:00:00 -- -- -- -- -- -- -- -- --
2017-08-31 15:00:00 -- -- -- -- -- -- -- -- --
2017-08-31 14:00:00 -- -- -- -- -- -- -- -- --
2017-08-31 13:00:00 -- -- -- -- -- -- -- -- --
2017-08-31 12:00:00 -- -- -- -- -- -- -- -- --
2017-08-31 11:00:00 -- -- -- -- -- -- -- -- --
2017-08-31 10:00:00 -- -- -- -- -- -- -- -- --
2017-08-31 09:00:00 -- -- -- -- -- -- -- -- --
2017-08-31 08:00:00 -- -- -- -- -- -- -- -- --
2017-08-31 07:00:00 -- -- -- -- -- -- -- -- --
2017-08-31 06:00:00 -- -- -- -- -- -- -- -- --
2017-08-31 05:00:00 -- -- -- -- -- -- -- -- --
2017-08-31 04:00:00 -- -- -- -- -- -- -- -- --
2017-08-31 03:00:00 -- -- -- -- -- -- -- -- --
2017-08-31 02:00:00 -- -- -- -- -- -- -- -- --
2017-08-31 01:00:00 -- -- -- -- -- -- -- -- --
2017-08-31 00:00:00 -- -- -- -- -- -- -- -- --
2017-08-30 23:00:00 -- -- -- -- -- -- -- -- --
2017-08-30 22:00:00 -- -- -- -- -- -- -- -- --
2017-08-30 21:00:00 -- -- -- -- -- -- -- -- --
2017-08-30 20:00:00 22.5 0 Calma 12 Oeste 0 1013.6 -2 77
2017-08-30 19:00:00 24.5 0 Calma 21 Nordeste 0 1013 -3.3 66
2017-08-30 18:00:00 21.3 5 Norte 18 Oeste 1 1013.6 -3.1 83
2017-08-30 17:00:00 20.7 8 Noroeste 26 Noroeste 2.9 1015.6 -0.2 91
2017-08-30 16:00:00 19.5 8 Norte 26 Noroeste 9.8 1016.3 -0.8 94
2017-08-30 15:00:00 20.8 5 Oeste 22 Oeste 0.5 1016.7 -0.3 89
2017-08-30 14:00:00 20 6 Este 16 Este 0.6 1015.8 -0.7 93
2017-08-30 13:00:00 19.8 3 Nordeste 12 Nordeste 0.2 1017.1 2 93
2017-08-30 12:00:00 19.6 4 Norte 17 Nordeste 1.6 1017 2.9 93
2017-08-30 11:00:00 20 8 Este 22 Nordeste 0.1 1016.5 1.9 91
2017-08-30 10:00:00 20.4 5 Norte 25 Nordeste 0.2 1015.1 1 87
2017-08-30 09:00:00 22.1 0 Calma 6 Noroeste 0 1014.1 -0.7 73
2017-08-30 08:00:00 21.8 3 Noroeste 9 Este 0 1014.6 0 75
2017-08-30 07:00:00 21.7 0 Calma 10 Nordeste 0 1014.1 -0.4 76
2017-08-30 06:00:00 21.8 0 Calma 6 Norte 0 1014.8 0.8 78
2017-08-30 05:00:00 21.9 0 Calma 17 Sudoeste 0 1014.6 -1.5 78
2017-08-30 04:00:00 22 8 Sudoeste 15 Oeste 0 1014.5 -1.3 78
2017-08-30 03:00:00 21.1 8 Norte 19 Norte 0 1014 -2.4 78
2017-08-30 02:00:00 20.4 0 Calma 6 Norte 0 1016.1 0.6 84
2017-08-30 01:00:00 20.1 0 Calma 14 Este 0 1015.8 -0.4 84
2017-08-30 00:00:00 20.3 6 Este 14 Este 0 1016.4 1 83
2017-08-29 23:00:00 20.5 3 Nordeste 18 Este 0 1015.5 1.7 82
2017-08-29 22:00:00 21.6 6 Este 23 Nordeste 0 1016.2 3.2 73
2017-08-29 21:00:00 22.3 12 Nordeste 21 Nordeste 0 1015.4 2.8 76
2017-08-29 20:00:00 23.2 4 Oeste 18 Sudoeste 0 1013.8 1.3 72
2017-08-29 19:00:00 23.2 8 Oeste 14 Oeste 0 1013 0.2 71
2017-08-29 18:00:00 23.2 5 Sudoeste 10 Oeste 0 1012.6 -1.1 72
2017-08-29 17:00:00 23.1 0 Calma 10 Sudoeste 0 1012.5 -1.5 62
2017-08-29 16:00:00 23.2 7 Oeste 27 Oeste 0 1012.8 -1.5 59
2017-08-29 15:00:00 22.3 14 Oeste 23 Oeste 0 1013.7 0.3 81
2017-08-29 14:00:00 21.8 7 Oeste 27 Norte 1.1 1014 0.4 84
2017-08-29 13:00:00 22.3 2 Nordeste 25 Oeste 0 1014.3 0.7 75
2017-08-29 12:00:00 24.2 13 Sudoeste 24 Sudoeste 0 1013.4 0.8 70
2017-08-29 11:00:00 25.1 13 Oeste 27 Oeste 0 1013.6 1.2 65
2017-08-29 10:00:00 24.6 16 Oeste 26 Oeste 0 1013.6 1.5 64
2017-08-29 09:00:00 25.2 0 Calma 5 Norte 0 1012.6 0.2 62
2017-08-29 08:00:00 23.6 0 Calma 12 Este 0 1012.4 -0.1 70
2017-08-29 07:00:00 22.8 3 Norte 7 Norte 0 1012.1 0 76
2017-08-29 06:00:00 22.9 0 Calma 6 Norte 0 1012.4 0.1 77
2017-08-29 05:00:00 22.9 0 Calma 7 Este 0 1012.5 0.2 77
2017-08-29 04:00:00 23.1 3 Norte 6 Noroeste 0 1012.1 -0.6 77
2017-08-29 03:00:00 23.9 0 Calma 24 Oeste 0 1012.3 -0.5 81
2017-08-29 02:00:00 24.4 16 Oeste 29 Sudoeste 0 1012.3 -0.5 81
2017-08-29 01:00:00 24.7 4 Oeste 11 Oeste 0 1012.7 -0.1 71
2017-08-29 00:00:00 24.8 0 Calma 8 Noroeste 0 1012.8 0.4 71
2017-08-28 23:00:00 24.4 0 Calma 6 Norte 0 1012.8 0.2 72
2017-08-28 22:00:00 24.5 0 Calma 6 Oeste 0 1012.8 0.7 73
2017-08-28 21:00:00 24.5 0 Calma 5 Norte 0 1012.4 0 76
2017-08-28 20:00:00 25.5 4 Oeste 13 Sudoeste 0 1012.6 -0.2 76
2017-08-28 19:00:00 25.7 2 Noroeste 13 Nordeste 0.2 1012.1 -0.9 71
2017-08-28 18:00:00 25.1 3 Nordeste 9 Este 1.1 1012.4 1.1 78
2017-08-28 17:00:00 26.1 2 Nordeste 24 Sur 0.3 1012.8 1.1 77
2017-08-28 16:00:00 28.1 8 Sur 20 Sur 0 1013 -1.8 56
2017-08-28 15:00:00 29.9 9 Norte 24 Norte 0 1011.3 -3.2 44
2017-08-28 14:00:00 28.1 11 Norte 29 Norte 0.4 1011.7 -2.3 50
2017-08-28 13:00:00 26.7 5 Nordeste 21 Este 0 1014.8 -1.4 57
2017-08-28 12:00:00 28 6 Norte 24 Nordeste 0 1014.5 -1.6 49
2017-08-28 11:00:00 25.4 8 Norte 26 Noroeste 0.2 1014 -0.8 66
2017-08-28 10:00:00 24 5 Norte 17 Este 0.6 1016.2 5.3 78
2017-08-28 09:00:00 24.9 4 Nordeste 24 Este 1.4 1016.1 5 90
2017-08-28 08:00:00 26 3 Noroeste 14 Sudoeste 0 1014.8 3.6 73
2017-08-28 07:00:00 26.5 6 Este 14 Este 0 1010.9 -1.5 62
2017-08-28 06:00:00 26.2 3 Nordeste 14 Sudeste 0 1011.1 -0.4 77
2017-08-28 05:00:00 25.9 5 Este 10 Este 0 1011.2 -1.4 81
2017-08-28 04:00:00 26.8 0 Calma 17 Norte 0 1012.4 -1.2 78
2017-08-28 03:00:00 28.2 10 Norte 29 Nordeste 0 1011.5 -2 61
2017-08-28 02:00:00 26.1 2 Oeste 17 Nordeste 0 1012.6 -1.9 83
2017-08-28 01:00:00 26.3 4 Este 31 Este 0 1013.6 -0.8 82
2017-08-28 00:00:00 25.9 10 Este 23 Este 0 1013.5 0.5 87
2017-08-27 23:00:00 26.2 6 Este 17 Este 0 1014.5 2.8 88
2017-08-27 22:00:00 26.3 10 Este 21 Sudeste 0 1014.4 3.1 87
2017-08-27 21:00:00 26.5 8 Este 18 Este 0 1013 2.3 86
2017-08-27 20:00:00 27 3 Nordeste 18 Este 0 1011.7 1 83
2017-08-27 19:00:00 26.9 10 Este 23 Sudeste 0 1011.3 -0.9 84
2017-08-27 18:00:00 27 10 Este 23 Sudeste 0 1010.7 -1.9 84
2017-08-27 17:00:00 27.8 5 Este 16 Nordeste 0 1010.7 -2.1 78
2017-08-27 16:00:00 27.6 5 Sudeste 11 Sudeste 0 1012.2 -0.1 78
2017-08-27 15:00:00 28.4 6 Sudeste 12 Oeste 0 1012.6 -0.2 74
2017-08-27 14:00:00 28.5 7 Sudoeste 14 Oeste 0 1012.8 -0.2 74
2017-08-27 13:00:00 28.8 2 Sudeste 9 Sur 0 1012.3 -0.5 72
2017-08-27 12:00:00 28.3 9 Oeste 17 Sudeste 0 1012.8 -0.1 76
2017-08-27 11:00:00 27.7 10 Sudeste 21 Sudeste 0 1013 0.4 76
2017-08-27 10:00:00 27.9 8 Sudeste 17 Este 0 1012.8 0.2 76
2017-08-27 09:00:00 26.7 7 Sudeste 22 Sudeste 0 1012.9 1.4 83
2017-08-27 08:00:00 25.9 8 Este 20 Este 0 1012.6 1 89
2017-08-27 07:00:00 25.4 6 Este 15 Este 0 1012.6 0.7 91
2017-08-27 06:00:00 25.6 5 Este 12 Este 0 1011.5 -1.3 87
2017-08-27 05:00:00 25.9 6 Oeste 13 Oeste 0 1011.6 -2 87
2017-08-27 04:00:00 25.8 6 Este 16 Este 0 1011.9 -2.1 84
2017-08-27 03:00:00 25.3 3 Este 11 Este 0 1012.8 -0.3 92
2017-08-27 02:00:00 25.4 4 Este 13 Sudeste 0 1013.6 0 92
2017-08-27 01:00:00 25.8 2 Este 25 Este 0 1014 -1.5 89
2017-08-27 00:00:00 25.9 8 Este 31 Este 0 1013.1 -1 88
2017-08-26 23:00:00 25.6 3 Nordeste 14 Oeste 0 1013.6 0.6 89
2017-08-26 22:00:00 25.9 10 Sudoeste 14 Sudoeste 0 1015.5 3.9 89
2017-08-26 21:00:00 26.3 5 Sur 13 Sudeste 0 1014.1 3.5 86
2017-08-26 20:00:00 26.2 8 Sudoeste 13 Sudoeste 0 1013 2.1 87
2017-08-26 19:00:00 26.6 6 Sudoeste 11 Sudoeste 0 1011.6 0.8 82
2017-08-26 18:00:00 28.1 5 Sudoeste 26 Sur 0 1010.6 -1.4 76
2017-08-26 17:00:00 28.8 5 Sudoeste 12 Sur 0 1010.9 -1.1 72
2017-08-26 16:00:00 28 5 Sudeste 14 Sur 0 1010.8 -2.1 78
2017-08-26 15:00:00 27.4 8 Sudeste 17 Sudeste 0 1012 -1.6 81
2017-08-26 14:00:00 27.4 12 Sudeste 19 Sudeste 0 1012 -1.2 79
2017-08-26 13:00:00 27.4 8 Sudeste 14 Sudeste 0 1012.9 0.3 79
2017-08-26 12:00:00 26.9 9 Sudeste 14 Sudeste 0 1013.6 0.7 79
2017-08-26 11:00:00 28.9 4 Sur 10 Sur 0 1013.2 0.1 68
2017-08-26 10:00:00 29.1 2 Sur 8 Sur 0 1012.6 -0.6 67
2017-08-26 09:00:00 28.2 0 Calma 6 Sudoeste 0 1012.9 0.2 72
2017-08-26 08:00:00 25.6 2 Norte 7 Noroeste 0 1013.1 0.5 86
2017-08-26 07:00:00 24.7 0 Calma 10 Este 0 1013.2 -0.1 89
2017-08-26 06:00:00 24.6 0 Calma 14 Este 0 1012.7 -1.4 86
2017-08-26 05:00:00 25 3 Norte 16 Este 0 1012.6 -2.1 85
2017-08-26 04:00:00 25.4 6 Este 14 Este 0 1013.3 -1.7 84
2017-08-26 03:00:00 24.7 0 Calma 7 Sudeste 0 1014.1 -0.8 89
2017-08-26 02:00:00 24.9 0 Calma 5 Sudeste 0 1014.7 -0.4 90
2017-08-26 01:00:00 25.1 0 Calma 6 Sudoeste 0 1015 0 89
2017-08-26 00:00:00 25.4 0 Calma 7 Sudoeste 0 1014.9 0.1 88
2017-08-25 23:00:00 25.8 2 Sur 8 Sudeste 0 1015.1 1.5 86
2017-08-25 22:00:00 25.9 0 Calma 6 Sur 0 1015 1.8 84
2017-08-25 21:00:00 26 2 Sur 11 Sur 0 1014.8 1.5 86
2017-08-25 20:00:00 26 4 Sudeste 14 Este 0 1013.6 0.4 83
2017-08-25 19:00:00 26.5 2 Sudeste 13 Sudoeste 0 1013.2 0 81
2017-08-25 18:00:00 26.7 9 Sudoeste 16 Sudoeste 0 1013.3 0.4 81
2017-08-25 17:00:00 27.7 8 Sudoeste 13 Sudoeste 0 1013.2 -0.6 73
2017-08-25 16:00:00 28.5 6 Sudoeste 12 Sudoeste 0 1013.2 -1.3 69
2017-08-25 15:00:00 28.4 4 Sur 12 Sudeste 0 1012.9 -1.7 73
2017-08-25 14:00:00 27.2 8 Sudeste 14 Sudeste 0 1013.8 -1.4 76
2017-08-25 13:00:00 27 9 Sudeste 14 Sudeste 0 1014.5 -0.7 74
2017-08-25 12:00:00 28.3 3 Sur 15 Sudeste 0 1014.6 -0.4 70
2017-08-25 11:00:00 27.4 7 Sudeste 12 Sudeste 0 1015.2 -0.3 74
2017-08-25 10:00:00 26.4 8 Sudeste 17 Sudeste 0 1015.2 -0.5 78
2017-08-25 09:00:00 26.5 10 Sudeste 17 Sudeste 0 1015 2.4 78
2017-08-25 08:00:00 25.5 5 Este 12 Este 0 1015.5 3.1 86
2017-08-25 07:00:00 25.4 5 Norte 19 Sudeste 0 1015.7 3.7 89
2017-08-25 06:00:00 27.2 8 Este 21 Este 0 1012.6 -1.5 51
2017-08-25 05:00:00 26.7 0 Calma 24 Norte 0 1012.4 -3.5 66
2017-08-25 04:00:00 28.1 15 Norte 38 Norte 0 1012 -5.3 50
2017-08-25 03:00:00 24.6 3 Norte 12 Norte 0 1014.1 -3 84
2017-08-25 02:00:00 24.9 0 Calma 9 Sudoeste 0 1015.9 -0.6 87
2017-08-25 01:00:00 25.6 4 Sudoeste 9 Sur 0 1017.3 1.3 86
2017-08-25 00:00:00 25.4 0 Calma 7 Sur 0 1017.1 1.7 86
2017-08-24 23:00:00 25 3 Nordeste 8 Oeste 0 1016.5 2.2 86
2017-08-24 22:00:00 25.3 5 Oeste 9 Noroeste 0 1016 2.1 84
2017-08-24 21:00:00 25.6 3 Noroeste 9 Oeste 0 1015.4 1.7 83
2017-08-24 20:00:00 25.8 4 Noroeste 9 Oeste 0 1014.3 0.7 81
2017-08-24 19:00:00 26.6 3 Sudoeste 8 Sudoeste 0 1013.9 0.1 73
2017-08-24 18:00:00 27.6 2 Sur 8 Sudoeste 0 1013.7 -1 70
2017-08-24 17:00:00 28.9 3 Sur 10 Sur 0 1013.6 -1.4 66
2017-08-24 16:00:00 28.5 3 Sudeste 10 Sur 0 1013.8 -1.7 68
2017-08-24 15:00:00 28.3 3 Sur 12 Sur 0 1014.7 -0.8 67
2017-08-24 14:00:00 28.3 5 Sur 13 Sudoeste 0 1015 -0.6 66
2017-08-24 13:00:00 28.6 4 Sur 13 Sudoeste 0 1015.5 0 66
2017-08-24 12:00:00 28.5 4 Sur 12 Sudeste 0 1015.5 0.2 68
2017-08-24 11:00:00 27.7 4 Sudeste 9 Sur 0 1015.6 0.9 68
2017-08-24 10:00:00 27 4 Sudeste 9 Sudeste 0 1015.5 0 68
2017-08-24 09:00:00 26.8 3 Sudeste 10 Sudeste 0 1015.3 0.2 65
2017-08-24 08:00:00 27.1 0 Calma 7 Este 0 1014.7 -0.2 60
2017-08-24 07:00:00 22.9 2 Norte 7 Norte 0 1015.5 0.7 76
2017-08-24 06:00:00 22.8 4 Norte 6 Noroeste 0 1015.1 0.1 80
2017-08-24 05:00:00 22.6 2 Norte 5 Norte 0 1014.9 -0.3 81
2017-08-24 04:00:00 23.8 2 Noroeste 7 Noroeste 0 1014.8 -0.8 88
2017-08-24 03:00:00 23.7 2 Norte 7 Noroeste 0 1015 -0.6 87
2017-08-24 02:00:00 24 3 Norte 6 Norte 0 1015.2 -0.4 87
2017-08-24 01:00:00 24.5 2 Oeste 5 Noroeste 0 1015.6 0.3 88
2017-08-24 00:00:00 24.2 3 Norte 6 Noroeste 0 1015.6 0.6 87
2017-08-23 23:00:00 24.7 3 Oeste 5 Oeste 0 1015.6 1.1 86
2017-08-23 22:00:00 24.9 0 Calma 6 Nordeste 0 1015.3 1.7 84
2017-08-23 21:00:00 24.9 0 Calma 5 Norte 0 1015 1.6 83
2017-08-23 20:00:00 25.2 3 Nordeste 6 Sur 0 1014.5 1.2 79
2017-08-23 19:00:00 27 0 Calma 9 Sudeste 0 1013.6 0.3 74
2017-08-23 18:00:00 26.9 4 Sur 9 Sur 0 1013.4 -0.3 72
2017-08-23 17:00:00 28.2 3 Sur 9 Sur 0 1013.3 -1.2 69
2017-08-23 16:00:00 28.1 4 Sur 11 Sur 0 1013.3 -- 69
2017-08-23 15:00:00 27.8 4 Sur 11 Sur 0 1013.7 -- 72
2017-08-23 14:00:00 27 7 Sudeste -- -- -- 1014.5 -- 76
2017-08-23 13:00:00 -- -- -- -- -- -- -- -- --
2017-08-23 12:00:00 -- -- -- -- -- -- -- -- --
2017-08-23 11:00:00 -- -- -- -- -- -- -- -- --
2017-08-23 10:00:00 -- -- -- -- -- -- -- -- --
2017-08-23 09:00:00 -- -- -- -- -- -- -- -- --
2017-08-23 08:00:00 -- -- -- -- -- -- -- -- --
2017-08-23 07:00:00 -- -- -- -- -- -- -- -- --
2017-08-23 06:00:00 -- -- -- -- -- -- -- -- --
2017-08-23 05:00:00 -- -- -- -- -- -- -- -- --
2017-08-23 04:00:00 -- -- -- -- -- -- -- -- --
2017-08-23 03:00:00 -- -- -- -- -- -- -- -- --
2017-08-23 02:00:00 -- -- -- -- -- -- -- -- --
2017-08-23 01:00:00 -- -- -- -- -- -- -- -- --
2017-08-23 00:00:00 -- -- -- -- -- -- -- -- --
2017-08-22 23:00:00 -- -- -- -- -- -- -- -- --
2017-08-22 22:00:00 -- -- -- -- -- -- -- -- --
2017-08-22 21:00:00 -- -- -- -- -- -- -- -- --
2017-08-22 20:00:00 -- -- -- -- -- -- -- -- --
2017-08-22 19:00:00 -- -- -- -- -- -- -- -- --
2017-08-22 18:00:00 -- -- -- -- -- -- -- -- --
2017-08-22 17:00:00 -- -- -- -- -- -- -- -- --
2017-08-22 16:00:00 -- -- -- -- -- -- -- -- --
2017-08-22 15:00:00 -- -- -- -- -- -- -- -- --
2017-08-22 14:00:00 -- -- -- -- -- -- -- -- --
2017-08-22 13:00:00 -- -- -- -- -- -- -- -- --
2017-08-22 12:00:00 -- -- -- -- -- -- -- -- --
2017-08-22 11:00:00 -- -- -- -- -- -- -- -- --
2017-08-22 10:00:00 -- -- -- -- -- -- -- -- --
2017-08-22 09:00:00 -- -- -- -- -- -- -- -- --
2017-08-22 08:00:00 -- -- -- -- -- -- -- -- --
2017-08-22 07:00:00 -- -- -- -- -- -- -- -- --
2017-08-22 06:00:00 -- -- -- -- -- -- -- -- --
2017-08-22 05:00:00 -- -- -- -- -- -- -- -- --
2017-08-22 04:00:00 -- -- -- -- -- -- -- -- --
2017-08-22 03:00:00 -- -- -- -- -- -- -- -- --
2017-08-22 02:00:00 -- -- -- -- -- -- -- -- --
2017-08-22 01:00:00 -- -- -- -- -- -- -- -- --
2017-08-22 00:00:00 -- -- -- -- -- -- -- -- --